Time;durP1;ratioP1;P1;durP2;ratioP2;P2;SDS_P1;SDS_P2;PMS_P1;PMS_P2;Temp;Humidity;BMP_temperature;BMP_pressure;BME280_temperature;BME280_humidity;BME280_pressure;Samples;Min_cycle;Max_cycle;Signal;HPM_P1;HPM_P2
2021/06/07 00:02:26;;;;;;;36.83;29.97;;;;;;;;;;5096414;28;20556;-55
2021/06/07 00:04:54;;;;;;;24.63;21.83;;;;;;;;;;5095795;28;20543;-60
2021/06/07 00:07:45;;;;;;;23.13;20.07;;;;;;;;;;5095508;28;20452;-61
2021/06/07 00:10:14;;;;;;;24.73;21.57;;;;;;;;;;5096194;28;20448;-54
2021/06/07 00:12:41;;;;;;;25.43;20.53;;;;;;;;;;5087599;28;20453;-58
2021/06/07 00:15:34;;;;;;;27.23;22.90;;;;;;;;;;5075377;28;20460;-57
2021/06/07 00:18:00;;;;;;;24.37;20.90;;;;;;;;;;5079568;28;20491;-60
2021/06/07 00:20:30;;;;;;;24.13;21.27;;;;;;;;;;5075516;28;20472;-52
2021/06/07 00:23:05;;;;;;;25.90;21.73;;;;;;;;;;5085162;28;20491;-54
2021/06/07 00:25:36;;;;;;;28.53;20.97;;;;;;;;;;5078256;28;20558;-59
2021/06/07 00:28:04;;;;;;;22.73;20.17;;;;;;;;;;5095459;28;20456;-58
2021/06/07 00:30:33;;;;;;;27.30;22.70;;;;;;;;;;5096105;28;20521;-60
2021/06/07 00:32:59;;;;;;;25.70;21.60;;;;;;;;;;5074851;28;20433;-53
2021/06/07 00:35:27;;;;;;;25.63;22.67;;;;;;;;;;5075641;28;20475;-62
2021/06/07 00:38:04;;;;;;;24.87;20.10;;;;;;;;;;5075965;28;20441;-55
2021/06/07 00:40:31;;;;;;;25.17;21.50;;;;;;;;;;5075552;28;20448;-57
2021/06/07 00:42:59;;;;;;;27.00;19.97;;;;;;;;;;5075568;28;20492;-55
2021/06/07 00:45:29;;;;;;;23.87;19.23;;;;;;;;;;5075346;28;20487;-57
2021/06/07 00:48:00;;;;;;;27.80;20.47;;;;;;;;;;5075463;28;20495;-59
2021/06/07 00:50:33;;;;;;;25.70;20.77;;;;;;;;;;5075844;28;20401;-56
2021/06/07 00:53:03;;;;;;;24.90;20.60;;;;;;;;;;5075556;28;20491;-59
2021/06/07 00:55:32;;;;;;;23.57;19.40;;;;;;;;;;5075353;28;20582;-59
2021/06/07 00:57:59;;;;;;;22.17;18.93;;;;;;;;;;5075542;28;20445;-57
2021/06/07 01:00:27;;;;;;;23.53;20.60;;;;;;;;;;5075121;28;20449;-55
2021/06/07 01:02:54;;;;;;;22.20;19.40;;;;;;;;;;5075516;28;20466;-52
2021/06/07 01:05:24;;;;;;;25.00;20.50;;;;;;;;;;5088904;28;20471;-54
2021/06/07 01:07:50;;;;;;;25.20;20.13;;;;;;;;;;5096050;28;20452;-55
2021/06/07 01:10:18;;;;;;;24.23;20.87;;;;;;;;;;5096420;28;20467;-57
2021/06/07 01:12:46;;;;;;;24.03;19.10;;;;;;;;;;5095834;28;20452;-57
2021/06/07 01:15:13;;;;;;;21.00;16.60;;;;;;;;;;5095583;28;20464;-56
2021/06/07 01:17:40;;;;;;;23.43;20.17;;;;;;;;;;5095576;28;20432;-56
2021/06/07 01:20:08;;;;;;;25.77;20.83;;;;;;;;;;5095540;28;20448;-54
2021/06/07 01:22:38;;;;;;;26.33;20.67;;;;;;;;;;5094762;28;20498;-54
2021/06/07 01:25:07;;;;;;;23.37;19.77;;;;;;;;;;5094961;28;20471;-53
2021/06/07 01:27:35;;;;;;;25.23;20.80;;;;;;;;;;5095231;28;20448;-55
2021/06/07 01:30:10;;;;;;;20.70;17.80;;;;;;;;;;5076361;28;20493;-57
2021/06/07 01:32:37;;;;;;;25.23;19.17;;;;;;;;;;5074974;28;20515;-56
2021/06/07 01:35:04;;;;;;;24.03;19.27;;;;;;;;;;5075761;28;20512;-61
2021/06/07 01:37:31;;;;;;;24.20;19.97;;;;;;;;;;5078722;28;20488;-59
2021/06/07 01:40:01;;;;;;;23.17;18.67;;;;;;;;;;5094758;28;20455;-56
2021/06/07 01:42:28;;;;;;;25.10;20.37;;;;;;;;;;5099052;28;20488;-57
2021/06/07 01:44:55;;;;;;;25.73;19.47;;;;;;;;;;5098421;28;20447;-54
2021/06/07 01:47:24;;;;;;;23.43;20.93;;;;;;;;;;5098239;28;20437;-59
2021/06/07 01:49:51;;;;;;;22.30;19.70;;;;;;;;;;5078895;28;20457;-59
2021/06/07 01:52:17;;;;;;;24.40;18.80;;;;;;;;;;5078292;28;20453;-60
2021/06/07 01:54:46;;;;;;;23.73;20.80;;;;;;;;;;5078572;28;20452;-53
2021/06/07 01:57:15;;;;;;;27.63;20.27;;;;;;;;;;5088865;28;20494;-52
2021/06/07 01:59:41;;;;;;;22.63;20.20;;;;;;;;;;5098611;28;20474;-56
2021/06/07 02:02:08;;;;;;;29.17;21.73;;;;;;;;;;5098006;28;20483;-54
2021/06/07 02:04:35;;;;;;;23.60;20.97;;;;;;;;;;5098444;28;20440;-59
2021/06/07 02:07:17;;;;;;;24.43;21.77;;;;;;;;;;5098480;28;20454;-57
2021/06/07 02:09:44;;;;;;;26.43;21.27;;;;;;;;;;5098131;28;20455;-58
2021/06/07 02:12:12;;;;;;;27.17;21.70;;;;;;;;;;5097969;28;20458;-58
2021/06/07 02:14:40;;;;;;;30.60;21.43;;;;;;;;;;5097712;28;20462;-57
2021/06/07 02:17:07;;;;;;;25.77;21.93;;;;;;;;;;5097570;28;20531;-59
2021/06/07 02:19:35;;;;;;;26.77;23.57;;;;;;;;;;5093155;28;20449;-56
2021/06/07 02:22:02;;;;;;;30.37;21.60;;;;;;;;;;5077463;28;20480;-56
2021/06/07 02:24:29;;;;;;;30.60;22.97;;;;;;;;;;5077811;28;20441;-51
2021/06/07 02:26:57;;;;;;;28.37;22.30;;;;;;;;;;5077883;28;20452;-54
2021/06/07 02:29:23;;;;;;;26.20;22.77;;;;;;;;;;5080980;28;20497;-56
2021/06/07 02:32:03;;;;;;;29.40;22.30;;;;;;;;;;5091641;28;20450;-62
2021/06/07 02:34:30;;;;;;;26.20;21.97;;;;;;;;;;5077465;28;20441;-57
2021/06/07 02:36:57;;;;;;;32.43;22.10;;;;;;;;;;5077723;28;20513;-57
2021/06/07 02:39:26;;;;;;;26.67;23.10;;;;;;;;;;5077221;28;20449;-57
2021/06/07 02:41:53;;;;;;;42.80;25.70;;;;;;;;;;5093044;28;20452;-53
2021/06/07 02:44:21;;;;;;;31.10;23.80;;;;;;;;;;5097323;28;20460;-53
2021/06/07 02:46:47;;;;;;;29.90;23.47;;;;;;;;;;5097226;28;20508;-61
2021/06/07 02:49:25;;;;;;;29.63;21.73;;;;;;;;;;5097508;28;20429;-57
2021/06/07 02:51:52;;;;;;;26.50;23.70;;;;;;;;;;5098021;28;20474;-57
2021/06/07 02:54:19;;;;;;;28.60;23.50;;;;;;;;;;5097255;28;20697;-57
2021/06/07 02:56:46;;;;;;;27.07;22.50;;;;;;;;;;5096908;28;20480;-57
2021/06/07 02:59:12;;;;;;;26.40;23.60;;;;;;;;;;5096715;28;20506;-54
2021/06/07 03:01:56;;;;;;;31.07;22.50;;;;;;;;;;5097326;28;20416;-61
2021/06/07 03:04:23;;;;;;;30.03;24.33;;;;;;;;;;5096862;28;20444;-54
2021/06/07 03:06:52;;;;;;;29.57;24.10;;;;;;;;;;5064859;28;20453;-58
2021/06/07 03:09:18;;;;;;;30.10;24.90;;;;;;;;;;5094956;28;20481;-52
2021/06/07 03:11:46;;;;;;;27.30;22.03;;;;;;;;;;5097176;28;20488;-55
2021/06/07 03:14:13;;;;;;;28.13;24.07;;;;;;;;;;5077239;28;20461;-55
2021/06/07 03:16:40;;;;;;;33.33;24.70;;;;;;;;;;5086758;28;20448;-55
2021/06/07 03:19:09;;;;;;;31.87;24.30;;;;;;;;;;5089952;28;20779;-59
2021/06/07 03:21:39;;;;;;;27.93;24.73;;;;;;;;;;5076800;28;20452;-57
2021/06/07 03:24:08;;;;;;;31.37;23.10;;;;;;;;;;5077290;28;20500;-58
2021/06/07 03:27:00;;;;;;;30.10;23.93;;;;;;;;;;5078187;28;20480;-52
2021/06/07 03:29:29;;;;;;;26.37;21.13;;;;;;;;;;5080576;28;20468;-55
2021/06/07 03:31:57;;;;;;;31.50;24.20;;;;;;;;;;5081899;28;20724;-57
2021/06/07 03:34:25;;;;;;;31.60;23.23;;;;;;;;;;5092499;28;20439;-56
2021/06/07 03:36:54;;;;;;;30.60;23.80;;;;;;;;;;5085363;28;20801;-56
2021/06/07 03:39:23;;;;;;;30.80;23.67;;;;;;;;;;5076285;28;20457;-60
2021/06/07 03:41:50;;;;;;;31.67;25.80;;;;;;;;;;5089359;28;20441;-58
2021/06/07 03:44:23;;;;;;;27.13;23.43;;;;;;;;;;5096466;28;20456;-58
2021/06/07 03:46:50;;;;;;;33.13;23.50;;;;;;;;;;5085977;28;20456;-55
2021/06/07 03:49:17;;;;;;;28.00;24.07;;;;;;;;;;5075541;28;20430;-56
2021/06/07 03:51:44;;;;;;;28.73;24.00;;;;;;;;;;5076022;28;20472;-57
2021/06/07 03:54:11;;;;;;;28.03;23.13;;;;;;;;;;5075425;28;20464;-55
2021/06/07 03:56:39;;;;;;;29.40;24.37;;;;;;;;;;5092930;28;20503;-57
2021/06/07 03:59:06;;;;;;;26.20;22.47;;;;;;;;;;5095192;28;20482;-56
2021/06/07 04:01:36;;;;;;;29.30;23.90;;;;;;;;;;5096156;28;20441;-57
2021/06/07 04:04:03;;;;;;;33.03;24.03;;;;;;;;;;5096006;28;20539;-59
2021/06/07 04:06:33;;;;;;;31.50;25.60;;;;;;;;;;5089803;28;20449;-60
2021/06/07 04:09:03;;;;;;;29.37;23.27;;;;;;;;;;5075892;28;20445;-54
2021/06/07 04:11:29;;;;;;;29.60;25.23;;;;;;;;;;5077367;28;20461;-56
2021/06/07 04:14:25;;;;;;;30.47;23.33;;;;;;;;;;5095911;28;20473;-51
2021/06/07 04:16:52;;;;;;;29.90;22.37;;;;;;;;;;5093946;28;20496;-56
2021/06/07 04:19:19;;;;;;;27.80;22.97;;;;;;;;;;5095240;28;20467;-58
2021/06/07 04:21:46;;;;;;;30.17;23.47;;;;;;;;;;5094342;28;20486;-59
2021/06/07 04:24:13;;;;;;;28.13;22.53;;;;;;;;;;5095516;28;20436;-55
2021/06/07 04:26:53;;;;;;;25.47;21.63;;;;;;;;;;5095232;28;20499;-56
2021/06/07 04:29:24;;;;;;;26.10;20.70;;;;;;;;;;5088014;28;20452;-58
2021/06/07 04:31:54;;;;;;;30.20;22.83;;;;;;;;;;5075462;28;20444;-55
2021/06/07 04:34:20;;;;;;;25.87;22.03;;;;;;;;;;5075680;28;20433;-60
2021/06/07 04:36:47;;;;;;;25.30;22.60;;;;;;;;;;5089678;28;20462;-60
2021/06/07 04:39:22;;;;;;;25.67;21.07;;;;;;;;;;5086154;28;20448;-55
2021/06/07 04:41:49;;;;;;;23.67;20.53;;;;;;;;;;5089408;28;20538;-57
2021/06/07 04:44:16;;;;;;;25.10;21.90;;;;;;;;;;5087821;28;20479;-54
2021/06/07 04:46:46;;;;;;;27.10;21.80;;;;;;;;;;5092880;28;20468;-57
2021/06/07 04:49:13;;;;;;;28.90;23.00;;;;;;;;;;5092950;28;20451;-59
2021/06/07 04:51:41;;;;;;;28.53;22.27;;;;;;;;;;5094614;28;20413;-54
2021/06/07 04:54:12;;;;;;;25.47;21.90;;;;;;;;;;5093201;28;20427;-60
2021/06/07 04:56:38;;;;;;;28.20;22.80;;;;;;;;;;5093349;28;20439;-60
2021/06/07 04:59:06;;;;;;;27.47;20.70;;;;;;;;;;5094996;28;20444;-61
2021/06/07 05:01:35;;;;;;;26.40;22.80;;;;;;;;;;5094866;28;20448;-56
2021/06/07 05:04:03;;;;;;;28.63;21.27;;;;;;;;;;5082498;28;20500;-55
2021/06/07 05:06:30;;;;;;;31.83;21.20;;;;;;;;;;5083687;28;20511;-50
2021/06/07 05:09:16;;;;;;;25.20;20.63;;;;;;;;;;5075823;28;20519;-56
2021/06/07 05:11:42;;;;;;;29.97;20.57;;;;;;;;;;5080048;28;20464;-60
2021/06/07 05:14:09;;;;;;;26.13;22.10;;;;;;;;;;5098564;28;20451;-61
2021/06/07 05:16:36;;;;;;;20.90;17.10;;;;;;;;;;5077508;28;20468;-60
2021/06/07 05:19:09;;;;;;;22.07;18.73;;;;;;;;;;5077775;28;20520;-57
2021/06/07 05:24:40;;;;;;;21.60;18.27;;;;;;;;;;5084407;28;20471;-59
2021/06/07 05:27:08;;;;;;;18.53;16.63;;;;;;;;;;5085747;28;20445;-56
2021/06/07 05:30:00;;;;;;;25.63;18.77;;;;;;;;;;5097145;28;20440;-58
2021/06/07 05:32:27;;;;;;;21.20;18.00;;;;;;;;;;5091001;28;20488;-57
2021/06/07 05:35:28;;;;;;;21.67;18.67;;;;;;;;;;5098920;28;20471;-60
2021/06/07 05:37:59;;;;;;;21.90;18.23;;;;;;;;;;5092358;28;20466;-57
2021/06/07 05:40:33;;;;;;;23.77;16.67;;;;;;;;;;5098905;28;20447;-60
2021/06/07 05:43:23;;;;;;;24.93;18.33;;;;;;;;;;5078088;28;20487;-61
2021/06/07 05:46:09;;;;;;;19.00;16.70;;;;;;;;;;5085224;28;20478;-61
2021/06/07 05:48:39;;;;;;;24.50;17.80;;;;;;;;;;5081705;28;20460;-56
2021/06/07 05:51:07;;;;;;;22.23;18.23;;;;;;;;;;5090300;28;20448;-59
2021/06/07 05:53:35;;;;;;;19.30;17.10;;;;;;;;;;5097083;28;20479;-57
2021/06/07 05:56:03;;;;;;;21.27;18.10;;;;;;;;;;5097756;28;20487;-59
2021/06/07 05:58:36;;;;;;;22.90;17.70;;;;;;;;;;5079656;28;20455;-60
2021/06/07 06:04:27;;;;;;;21.23;16.77;;;;;;;;;;5097662;28;20480;-57
2021/06/07 06:06:54;;;;;;;19.70;15.63;;;;;;;;;;5097099;28;20513;-54
2021/06/07 06:09:22;;;;;;;20.60;16.70;;;;;;;;;;5097420;28;20436;-59
2021/06/07 06:11:54;;;;;;;20.20;15.60;;;;;;;;;;5077619;28;20464;-57
2021/06/07 06:14:21;;;;;;;19.40;16.60;;;;;;;;;;5077986;28;20460;-50
2021/06/07 06:16:51;;;;;;;16.93;14.60;;;;;;;;;;5095161;28;20445;-53
2021/06/07 06:19:37;;;;;;;17.00;14.10;;;;;;;;;;5097368;28;20527;-59
2021/06/07 06:22:23;;;;;;;17.43;14.77;;;;;;;;;;5096203;28;20459;-60
2021/06/07 06:24:51;;;;;;;18.13;15.80;;;;;;;;;;5097278;28;20447;-56
2021/06/07 06:27:24;;;;;;;18.43;15.67;;;;;;;;;;5098032;28;20453;-56
2021/06/07 06:29:51;;;;;;;18.23;15.17;;;;;;;;;;5081691;28;20461;-54
2021/06/07 06:32:19;;;;;;;16.13;14.43;;;;;;;;;;5076809;28;20461;-58
2021/06/07 06:34:49;;;;;;;15.60;13.00;;;;;;;;;;5076875;28;20548;-55
2021/06/07 06:37:16;;;;;;;16.87;13.50;;;;;;;;;;5076921;28;20453;-59
2021/06/07 06:39:50;;;;;;;18.30;14.10;;;;;;;;;;5077557;28;20473;-53
2021/06/07 06:42:18;;;;;;;17.57;12.80;;;;;;;;;;5076476;28;20503;-60
2021/06/07 06:44:45;;;;;;;18.57;14.87;;;;;;;;;;5079046;28;20453;-56
2021/06/07 06:47:12;;;;;;;16.37;13.63;;;;;;;;;;5095355;28;20451;-54
2021/06/07 06:49:41;;;;;;;18.90;16.03;;;;;;;;;;5078264;28;20476;-57
2021/06/07 06:52:10;;;;;;;17.00;15.07;;;;;;;;;;5079918;28;20425;-57
2021/06/07 06:54:37;;;;;;;20.43;16.43;;;;;;;;;;5087838;28;20460;-54
2021/06/07 06:57:05;;;;;;;19.53;15.97;;;;;;;;;;5096093;28;20459;-58
2021/06/07 06:59:33;;;;;;;18.90;15.63;;;;;;;;;;5095844;28;20456;-56
2021/06/07 07:02:00;;;;;;;19.67;15.60;;;;;;;;;;5095688;28;20545;-61
2021/06/07 07:04:27;;;;;;;23.73;15.80;;;;;;;;;;5076113;28;20469;-58
2021/06/07 07:07:03;;;;;;;19.53;15.87;;;;;;;;;;5076414;28;20453;-54
2021/06/07 07:09:29;;;;;;;19.93;15.60;;;;;;;;;;5076239;28;20441;-58
2021/06/07 07:11:56;;;;;;;15.43;13.73;;;;;;;;;;5076547;28;20456;-55
2021/06/07 07:14:30;;;;;;;16.63;14.47;;;;;;;;;;5076506;28;20457;-61
2021/06/07 07:16:58;;;;;;;16.33;14.17;;;;;;;;;;5075298;28;20476;-60
2021/06/07 07:19:25;;;;;;;18.77;14.87;;;;;;;;;;5078327;28;20437;-57
2021/06/07 07:21:54;;;;;;;19.20;14.07;;;;;;;;;;5085264;28;20449;-61
2021/06/07 07:24:21;;;;;;;18.93;15.53;;;;;;;;;;5089958;28;20488;-60
2021/06/07 07:26:53;;;;;;;17.83;13.83;;;;;;;;;;5086387;28;20539;-54
2021/06/07 07:29:23;;;;;;;20.27;14.70;;;;;;;;;;5080383;28;20463;-52
2021/06/07 07:31:52;;;;;;;15.83;13.33;;;;;;;;;;5077698;28;20421;-54
2021/06/07 07:34:26;;;;;;;17.90;14.50;;;;;;;;;;5094981;28;20436;-58
2021/06/07 07:36:54;;;;;;;21.37;17.60;;;;;;;;;;5095097;28;20510;-58
2021/06/07 07:39:30;;;;;;;18.03;16.13;;;;;;;;;;5077221;28;20447;-54
2021/06/07 07:41:58;;;;;;;22.90;16.93;;;;;;;;;;5091779;28;20484;-58
2021/06/07 07:44:28;;;;;;;19.87;16.30;;;;;;;;;;5095598;28;20535;-58
2021/06/07 07:46:56;;;;;;;18.40;15.10;;;;;;;;;;5096128;28;20486;-57
2021/06/07 07:49:28;;;;;;;21.23;13.80;;;;;;;;;;5095730;28;20440;-62
2021/06/07 07:51:55;;;;;;;19.53;17.53;;;;;;;;;;5095400;28;20440;-57
2021/06/07 07:54:21;;;;;;;17.33;15.53;;;;;;;;;;5094824;28;20467;-56
2021/06/07 07:57:16;;;;;;;23.83;17.03;;;;;;;;;;5095509;28;20630;-48
2021/06/07 07:59:42;;;;;;;19.27;15.97;;;;;;;;;;5093401;28;20484;-54
2021/06/07 08:02:09;;;;;;;20.67;17.30;;;;;;;;;;5089426;28;20520;-55
2021/06/07 08:04:38;;;;;;;19.40;17.33;;;;;;;;;;5057446;28;20480;-60
2021/06/07 08:07:05;;;;;;;21.50;18.27;;;;;;;;;;5074522;28;20445;-58
2021/06/07 08:10:00;;;;;;;22.37;18.50;;;;;;;;;;5075231;28;20435;-57
2021/06/07 08:12:27;;;;;;;21.77;16.43;;;;;;;;;;5078301;28;20479;-54
2021/06/07 08:14:55;;;;;;;25.03;20.43;;;;;;;;;;5089566;28;20441;-57
2021/06/07 08:17:40;;;;;;;23.97;20.23;;;;;;;;;;5075187;28;20453;-59
2021/06/07 08:20:10;;;;;;;24.13;19.60;;;;;;;;;;5074368;28;20467;-59
2021/06/07 08:22:45;;;;;;;22.40;19.40;;;;;;;;;;5074977;28;20792;-57
2021/06/07 08:25:12;;;;;;;25.27;20.60;;;;;;;;;;5085191;28;20475;-59
2021/06/07 08:27:40;;;;;;;26.27;21.33;;;;;;;;;;5094858;28;20448;-58
2021/06/07 08:30:10;;;;;;;27.00;20.07;;;;;;;;;;5095147;28;20448;-59
2021/06/07 08:32:38;;;;;;;24.10;20.93;;;;;;;;;;5094006;28;20486;-56
2021/06/07 08:35:27;;;;;;;27.90;21.80;;;;;;;;;;5094780;28;20578;-57
2021/06/07 08:37:58;;;;;;;25.97;20.60;;;;;;;;;;5094511;28;20446;-55
2021/06/07 08:40:26;;;;;;;27.20;20.53;;;;;;;;;;5088437;28;20456;-55
2021/06/07 08:43:21;;;;;;;26.00;19.40;;;;;;;;;;5073989;28;20502;-58
2021/06/07 08:45:48;;;;;;;30.23;21.83;;;;;;;;;;5078171;28;20444;-55
2021/06/07 08:48:16;;;;;;;23.77;18.97;;;;;;;;;;5078712;28;20449;-57
2021/06/07 08:51:07;;;;;;;22.43;19.53;;;;;;;;;;5061754;28;20445;-50
2021/06/07 08:53:50;;;;;;;26.20;21.67;;;;;;;;;;5091973;28;20499;-56
2021/06/07 08:56:23;;;;;;;33.03;21.73;;;;;;;;;;5098376;28;20463;-56
2021/06/07 08:58:51;;;;;;;23.30;18.70;;;;;;;;;;5098730;28;20459;-57
2021/06/07 09:01:18;;;;;;;23.63;18.80;;;;;;;;;;5096888;28;20448;-53
2021/06/07 09:03:58;;;;;;;27.10;21.70;;;;;;;;;;5080178;28;20510;-57
2021/06/07 09:06:26;;;;;;;22.37;19.43;;;;;;;;;;5098331;28;20458;-53
2021/06/07 09:12:20;;;;;;;23.77;19.27;;;;;;;;;;5078098;28;20444;-61
2021/06/07 09:15:19;;;;;;;22.43;17.50;;;;;;;;;;5098730;28;20509;-55
2021/06/07 09:17:56;;;;;;;23.57;18.33;;;;;;;;;;5095465;28;20442;-61
2021/06/07 09:20:24;;;;;;;25.63;18.10;;;;;;;;;;5097538;28;20463;-57
2021/06/07 09:22:56;;;;;;;25.10;18.87;;;;;;;;;;5096627;28;20491;-59
2021/06/07 09:25:26;;;;;;;22.33;17.77;;;;;;;;;;5092847;28;20475;-58
2021/06/07 09:28:10;;;;;;;22.57;17.33;;;;;;;;;;5097452;28;20473;-56
2021/06/07 09:30:48;;;;;;;20.63;17.60;;;;;;;;;;5097043;28;20481;-56
2021/06/07 09:33:21;;;;;;;21.00;16.20;;;;;;;;;;5095545;28;20522;-59
2021/06/07 09:36:04;;;;;;;22.20;16.53;;;;;;;;;;5097089;28;20459;-54
2021/06/07 09:41:46;;;;;;;23.67;19.40;;;;;;;;;;5095901;28;20493;-51
2021/06/07 09:44:19;;;;;;;23.63;17.83;;;;;;;;;;5097066;28;20471;-53
2021/06/07 09:49:50;;;;;;;20.90;16.70;;;;;;;;;;5080541;28;20484;-59
2021/06/07 09:52:20;;;;;;;25.97;19.07;;;;;;;;;;5098564;28;20491;-57
2021/06/07 09:55:04;;;;;;;22.97;18.70;;;;;;;;;;5097582;28;20488;-54
2021/06/07 09:57:43;;;;;;;26.40;19.33;;;;;;;;;;5094572;28;20448;-58
2021/06/07 10:00:10;;;;;;;24.23;17.17;;;;;;;;;;5081997;28;20477;-60
2021/06/07 10:03:05;;;;;;;22.27;17.53;;;;;;;;;;5076279;28;20437;-57
2021/06/07 10:05:34;;;;;;;23.67;18.83;;;;;;;;;;5059960;28;20445;-59
2021/06/07 10:08:03;;;;;;;25.53;18.77;;;;;;;;;;5094281;28;20456;-56
2021/06/07 10:13:39;;;;;;;22.87;17.60;;;;;;;;;;5076973;28;20467;-51
2021/06/07 10:16:11;;;;;;;28.00;20.70;;;;;;;;;;5054918;28;20864;-55
2021/06/07 10:18:41;;;;;;;28.53;20.73;;;;;;;;;;5044911;28;20465;-54
2021/06/07 10:21:30;;;;;;;24.60;20.00;;;;;;;;;;5038182;28;20534;-57
2021/06/07 10:24:00;;;;;;;26.60;20.47;;;;;;;;;;5048673;28;20542;-56
2021/06/07 10:26:30;;;;;;;27.90;21.40;;;;;;;;;;5035709;28;20463;-56
2021/06/07 10:29:09;;;;;;;27.30;21.10;;;;;;;;;;5020639;28;20471;-58
2021/06/07 10:31:40;;;;;;;26.17;19.90;;;;;;;;;;5032811;28;20481;-53
2021/06/07 10:34:12;;;;;;;25.67;21.40;;;;;;;;;;5077128;28;20444;-59
2021/06/07 10:39:59;;;;;;;27.13;20.40;;;;;;;;;;5074414;28;20472;-61
2021/06/07 10:42:27;;;;;;;33.00;21.30;;;;;;;;;;5076692;28;20440;-54
2021/06/07 10:45:02;;;;;;;29.73;19.63;;;;;;;;;;5056861;28;20501;-58
2021/06/07 10:47:35;;;;;;;25.40;20.53;;;;;;;;;;5068388;28;20488;-54
2021/06/07 10:50:07;;;;;;;26.57;19.73;;;;;;;;;;5076145;28;20480;-54
2021/06/07 10:55:44;;;;;;;26.90;20.70;;;;;;;;;;5076398;28;20423;-55
2021/06/07 10:58:13;;;;;;;24.03;19.40;;;;;;;;;;5071836;28;20472;-56
2021/06/07 11:00:42;;;;;;;26.17;19.70;;;;;;;;;;5053768;28;20442;-54
2021/06/07 11:03:18;;;;;;;26.23;17.13;;;;;;;;;;5073096;28;20524;-59
2021/06/07 11:05:51;;;;;;;24.77;18.47;;;;;;;;;;5073827;28;20448;-56
2021/06/07 11:08:25;;;;;;;22.40;17.17;;;;;;;;;;5062826;28;20599;-63
2021/06/07 11:11:03;;;;;;;21.10;16.97;;;;;;;;;;5056784;28;20471;-58
2021/06/07 11:13:46;;;;;;;18.73;15.13;;;;;;;;;;5043358;28;20441;-58
2021/06/07 11:16:26;;;;;;;20.60;16.00;;;;;;;;;;5079471;28;20482;-58
2021/06/07 11:18:59;;;;;;;23.30;14.37;;;;;;;;;;5095244;28;20456;-58
2021/06/07 11:21:30;;;;;;;19.40;13.87;;;;;;;;;;5079471;28;20445;-59
2021/06/07 11:23:57;;;;;;;17.00;13.37;;;;;;;;;;5075286;28;20488;-54
2021/06/07 11:26:53;;;;;;;16.10;13.17;;;;;;;;;;5075107;28;20457;-57
2021/06/07 11:29:27;;;;;;;15.17;11.47;;;;;;;;;;5077728;28;20457;-59
2021/06/07 11:34:59;;;;;;;14.47;10.60;;;;;;;;;;5073009;28;20508;-55
2021/06/07 11:37:33;;;;;;;11.93;8.53;;;;;;;;;;5075429;28;20452;-58
2021/06/07 11:40:02;;;;;;;11.67;9.37;;;;;;;;;;5074657;28;20452;-58
2021/06/07 11:42:30;;;;;;;12.40;8.53;;;;;;;;;;5074389;28;20437;-60
2021/06/07 11:45:02;;;;;;;10.47;8.90;;;;;;;;;;5087470;28;20555;-59
2021/06/07 11:47:58;;;;;;;12.00;10.80;;;;;;;;;;5095278;28;20428;-58
2021/06/07 11:50:33;;;;;;;10.40;8.40;;;;;;;;;;5092791;28;20484;-60
2021/06/07 11:53:12;;;;;;;9.60;7.40;;;;;;;;;;5088176;28;20468;-60
2021/06/07 11:55:43;;;;;;;9.17;6.37;;;;;;;;;;5075283;28;20445;-55
2021/06/07 11:58:21;;;;;;;5.90;4.40;;;;;;;;;;5074422;28;20441;-55
2021/06/07 12:01:10;;;;;;;10.13;7.10;;;;;;;;;;5067017;28;20456;-56
2021/06/07 12:04:03;;;;;;;9.10;6.23;;;;;;;;;;5081396;28;20555;-60
2021/06/07 12:06:33;;;;;;;9.37;6.87;;;;;;;;;;5092185;28;20574;-58
2021/06/07 12:09:08;;;;;;;11.80;7.40;;;;;;;;;;5087142;28;20519;-58
2021/06/07 12:12:03;;;;;;;14.00;8.93;;;;;;;;;;5094706;28;20447;-58
2021/06/07 12:14:33;;;;;;;12.73;9.27;;;;;;;;;;5074573;28;20504;-50
2021/06/07 12:17:04;;;;;;;11.70;8.73;;;;;;;;;;5066126;28;20612;-60
2021/06/07 12:22:42;;;;;;;15.53;10.47;;;;;;;;;;5087824;28;20488;-58
2021/06/07 12:25:17;;;;;;;14.93;9.10;;;;;;;;;;5094974;28;20456;-55
2021/06/07 12:30:31;;;;;;;12.33;9.33;;;;;;;;;;5074556;28;20512;-57
2021/06/07 12:33:28;;;;;;;11.67;9.43;;;;;;;;;;5094385;28;20436;-62
2021/06/07 12:35:56;;;;;;;16.00;11.03;;;;;;;;;;5078525;28;20441;-52
2021/06/07 12:38:48;;;;;;;12.53;9.57;;;;;;;;;;5081703;28;20424;-59
2021/06/07 12:41:32;;;;;;;14.73;11.63;;;;;;;;;;5095302;28;20448;-57
2021/06/07 12:44:20;;;;;;;16.53;10.40;;;;;;;;;;5075035;28;20518;-60
2021/06/07 12:46:51;;;;;;;24.60;10.20;;;;;;;;;;5075605;28;20517;-55
2021/06/07 12:49:27;;;;;;;12.27;9.30;;;;;;;;;;5085215;28;20470;-60
2021/06/07 12:51:59;;;;;;;12.63;10.80;;;;;;;;;;5078774;28;20444;-58
2021/06/07 12:54:27;;;;;;;13.70;11.20;;;;;;;;;;5072991;28;20460;-57
2021/06/07 12:56:57;;;;;;;15.43;12.70;;;;;;;;;;5084979;28;20445;-59
2021/06/07 12:59:29;;;;;;;16.73;11.93;;;;;;;;;;5086163;28;20520;-60
2021/06/07 13:05:03;;;;;;;15.40;12.70;;;;;;;;;;5095661;28;20467;-52
2021/06/07 13:10:19;;;;;;;21.47;13.00;;;;;;;;;;5092537;28;20826;-58
2021/06/07 13:12:56;;;;;;;17.03;13.90;;;;;;;;;;5078414;28;20452;-62
2021/06/07 13:15:38;;;;;;;16.67;13.47;;;;;;;;;;5083711;28;20471;-50
2021/06/07 13:18:10;;;;;;;16.43;13.80;;;;;;;;;;5084613;28;20504;-59
2021/06/07 13:20:37;;;;;;;21.40;13.90;;;;;;;;;;5094992;28;20637;-59
2021/06/07 13:26:36;;;;;;;17.73;13.93;;;;;;;;;;5094035;28;20519;-57
2021/06/07 13:32:21;;;;;;;16.30;12.40;;;;;;;;;;5077811;28;20449;-56
2021/06/07 13:35:02;;;;;;;18.90;15.40;;;;;;;;;;5090183;28;20471;-58
2021/06/07 13:40:31;;;;;;;16.00;12.60;;;;;;;;;;5073710;28;20463;-61
2021/06/07 13:43:24;;;;;;;15.93;12.83;;;;;;;;;;5058302;28;20473;-59
2021/06/07 13:46:34;;;;;;;13.27;11.77;;;;;;;;;;5054722;28;20473;-60
2021/06/07 13:49:28;;;;;;;16.00;12.03;;;;;;;;;;5049309;28;20435;-53
2021/06/07 13:52:13;;;;;;;19.43;12.30;;;;;;;;;;5071592;28;20505;-58
2021/06/07 13:54:57;;;;;;;17.37;13.13;;;;;;;;;;5058902;28;20552;-56
2021/06/07 13:57:59;;;;;;;15.73;12.43;;;;;;;;;;5067947;28;20455;-59
2021/06/07 14:03:22;;;;;;;14.77;13.20;;;;;;;;;;5077661;28;20496;-56
2021/06/07 14:06:17;;;;;;;21.10;14.23;;;;;;;;;;5072443;28;20461;-61
2021/06/07 14:09:07;;;;;;;16.10;11.67;;;;;;;;;;5057287;28;20537;-55
2021/06/07 14:11:46;;;;;;;14.47;12.47;;;;;;;;;;5057866;28;20474;-61
2021/06/07 14:14:15;;;;;;;16.43;13.10;;;;;;;;;;5074252;28;20457;-54
2021/06/07 14:16:45;;;;;;;14.00;12.27;;;;;;;;;;5077222;28;20472;-57
2021/06/07 14:19:27;;;;;;;17.73;11.93;;;;;;;;;;5055823;28;20464;-51
2021/06/07 14:24:46;;;;;;;16.73;13.23;;;;;;;;;;5067520;28;20489;-61
2021/06/07 14:27:14;;;;;;;20.23;16.10;;;;;;;;;;5064628;28;20433;-57
2021/06/07 14:29:45;;;;;;;18.50;14.70;;;;;;;;;;5076982;28;20468;-58
2021/06/07 14:32:16;;;;;;;19.33;16.33;;;;;;;;;;5066129;28;20450;-56
2021/06/07 14:35:05;;;;;;;15.70;14.10;;;;;;;;;;5057701;28;20526;-57
2021/06/07 14:37:33;;;;;;;15.63;13.17;;;;;;;;;;5057898;28;20487;-59
2021/06/07 14:40:02;;;;;;;13.70;12.00;;;;;;;;;;5052055;28;20477;-58
2021/06/07 14:42:32;;;;;;;14.80;12.80;;;;;;;;;;5067753;28;20461;-54
2021/06/07 14:45:19;;;;;;;15.03;13.30;;;;;;;;;;5076103;28;20569;-56
2021/06/07 14:47:53;;;;;;;17.50;14.30;;;;;;;;;;5065254;28;20486;-54
2021/06/07 14:50:20;;;;;;;20.70;15.60;;;;;;;;;;5061523;28;20440;-56
2021/06/07 14:53:12;;;;;;;17.77;15.47;;;;;;;;;;5074998;28;20491;-56
2021/06/07 14:58:29;;;;;;;17.97;14.37;;;;;;;;;;5056762;28;20456;-55
2021/06/07 15:00:58;;;;;;;15.97;13.90;;;;;;;;;;5065290;28;20438;-58
2021/06/07 15:03:40;;;;;;;20.23;14.47;;;;;;;;;;5057712;28;20470;-57
2021/06/07 15:06:21;;;;;;;15.60;14.00;;;;;;;;;;5073204;28;20472;-59
2021/06/07 15:08:55;;;;;;;19.47;13.60;;;;;;;;;;5067276;28;20450;-53
2021/06/07 15:11:22;;;;;;;17.90;13.47;;;;;;;;;;5071612;28;20477;-54
2021/06/07 15:13:55;;;;;;;18.03;14.50;;;;;;;;;;5075615;28;20505;-62
2021/06/07 15:16:59;;;;;;;17.73;14.20;;;;;;;;;;5072152;28;20521;-60
2021/06/07 15:19:28;;;;;;;17.00;14.30;;;;;;;;;;5074718;28;20485;-58
2021/06/07 15:21:56;;;;;;;14.17;12.77;;;;;;;;;;5071881;28;20453;-54
2021/06/07 15:24:24;;;;;;;15.93;13.73;;;;;;;;;;5075807;28;20481;-58
2021/06/07 15:26:51;;;;;;;16.93;14.87;;;;;;;;;;5065214;28;20473;-51
2021/06/07 15:32:37;;;;;;;17.63;13.13;;;;;;;;;;5075185;28;20460;-52
2021/06/07 15:35:22;;;;;;;13.33;11.93;;;;;;;;;;5077050;28;20483;-61
2021/06/07 15:38:02;;;;;;;16.97;12.20;;;;;;;;;;5072412;28;20511;-58
2021/06/07 15:40:30;;;;;;;12.67;11.03;;;;;;;;;;5070943;28;20445;-58
2021/06/07 15:42:58;;;;;;;14.40;11.37;;;;;;;;;;5076719;28;20453;-57
2021/06/07 15:48:34;;;;;;;13.47;11.23;;;;;;;;;;5075147;28;20578;-61
2021/06/07 15:51:01;;;;;;;11.40;9.47;;;;;;;;;;5056027;28;20434;-54
2021/06/07 15:53:28;;;;;;;9.83;8.80;;;;;;;;;;5055683;28;20446;-62
2021/06/07 15:55:55;;;;;;;10.20;8.30;;;;;;;;;;5056688;28;20461;-56